Time;durP1;ratioP1;P1;durP2;ratioP2;P2;SDS_P1;SDS_P2;PMS_P1;PMS_P2;Temp;Humidity;BMP_temperature;BMP_pressure;BME280_temperature;BME280_humidity;BME280_pressure;Samples;Min_cycle;Max_cycle;Signal;HPM_P1;HPM_P2
2021/12/16 00:02:07;;;;;;;127.43;24.15;;;;;;;;;;5073194;28;20069;-78
2021/12/16 00:07:25;;;;;;;90.13;22.90;;;;;;;;;;5072537;28;20053;-79
2021/12/16 00:10:00;;;;;;;101.60;22.23;;;;;;;;;;5047852;28;20119;-79
2021/12/16 00:29:32;;;;;;;101.45;21.05;;;;;;;;;;5076091;28;20099;-78
2021/12/16 00:31:54;;;;;;;88.47;21.55;;;;;;;;;;5063698;28;20558;-78
2021/12/16 00:34:22;;;;;;;139.27;23.05;;;;;;;;;;5054702;28;20053;-78
2021/12/16 00:36:49;;;;;;;88.45;21.05;;;;;;;;;;5073396;28;20562;-80
2021/12/16 00:39:19;;;;;;;101.18;21.05;;;;;;;;;;5048874;28;20891;-81
2021/12/16 00:41:49;;;;;;;167.68;22.55;;;;;;;;;;5072852;28;20147;-79
2021/12/16 00:49:36;;;;;;;86.18;21.08;;;;;;;;;;5064943;28;20109;-80
2021/12/16 00:55:03;;;;;;;106.45;23.40;;;;;;;;;;5073211;28;20076;-80
2021/12/16 00:57:30;;;;;;;117.80;23.65;;;;;;;;;;5052320;28;20081;-80
2021/12/16 00:59:59;;;;;;;85.32;20.50;;;;;;;;;;5054924;28;20049;-79
2021/12/16 01:02:47;;;;;;;80.53;21.40;;;;;;;;;;5071164;28;20064;-77
2021/12/16 01:05:46;;;;;;;89.18;21.95;;;;;;;;;;5072374;28;20084;-79
2021/12/16 01:51:14;;;;;;;71.75;19.65;;;;;;;;;;5070152;28;20045;-78
2021/12/16 01:54:16;;;;;;;93.50;20.70;;;;;;;;;;5046090;28;20111;-77
2021/12/16 01:56:46;;;;;;;76.85;20.05;;;;;;;;;;5063463;28;20052;-79
2021/12/16 01:59:18;;;;;;;116.65;21.23;;;;;;;;;;5069379;28;20075;-79
2021/12/16 02:01:45;;;;;;;86.70;21.17;;;;;;;;;;5057169;28;20049;-78
2021/12/16 02:04:20;;;;;;;69.05;19.65;;;;;;;;;;5048379;28;20072;-78
2021/12/16 02:07:03;;;;;;;73.70;19.95;;;;;;;;;;5045998;28;20150;-80
2021/12/16 02:09:39;;;;;;;63.33;19.88;;;;;;;;;;5051305;28;20140;-78
2021/12/16 02:12:32;;;;;;;71.15;20.45;;;;;;;;;;5053474;28;20053;-78
2021/12/16 02:31:26;;;;;;;73.50;20.38;;;;;;;;;;5070582;28;20057;-79
2021/12/16 02:36:42;;;;;;;57.88;19.05;;;;;;;;;;5057548;28;20092;-79
2021/12/16 02:39:12;;;;;;;69.97;20.13;;;;;;;;;;5047610;28;20052;-78
2021/12/16 02:41:40;;;;;;;68.10;19.73;;;;;;;;;;5051966;28;20053;-80
2021/12/16 02:49:19;;;;;;;54.90;18.27;;;;;;;;;;5055223;28;20095;-79
2021/12/16 02:51:47;;;;;;;60.00;18.52;;;;;;;;;;5052600;28;20080;-79
2021/12/16 02:54:14;;;;;;;65.57;18.70;;;;;;;;;;5069720;28;20096;-79
2021/12/16 02:56:40;;;;;;;58.42;18.60;;;;;;;;;;5070082;28;20057;-78
2021/12/16 02:59:07;;;;;;;57.60;18.85;;;;;;;;;;5051748;28;20390;-80
2021/12/16 03:01:41;;;;;;;59.60;19.15;;;;;;;;;;5063794;28;20064;-80
2021/12/16 03:04:11;;;;;;;71.00;20.08;;;;;;;;;;5067344;28;20047;-80
2021/12/16 03:06:40;;;;;;;66.50;18.90;;;;;;;;;;5052383;28;20504;-80
2021/12/16 03:09:09;;;;;;;64.90;19.50;;;;;;;;;;5053078;28;20103;-78
2021/12/16 03:21:59;;;;;;;69.93;19.65;;;;;;;;;;5069360;28;20115;-78
2021/12/16 03:35:31;;;;;;;72.40;20.48;;;;;;;;;;5069566;28;20091;-77
2021/12/16 03:38:03;;;;;;;80.95;20.50;;;;;;;;;;5051819;28;20110;-81
2021/12/16 03:40:30;;;;;;;87.28;21.58;;;;;;;;;;5051563;28;20088;-81
2021/12/16 03:43:03;;;;;;;88.63;22.98;;;;;;;;;;5054948;28;20119;-80
2021/12/16 03:48:32;;;;;;;138.75;25.17;;;;;;;;;;5069533;28;20516;-81
2021/12/16 03:51:00;;;;;;;136.15;25.60;;;;;;;;;;5051122;28;20166;-82
2021/12/16 03:53:27;;;;;;;171.27;27.70;;;;;;;;;;5042893;28;20060;-81
2021/12/16 03:55:53;;;;;;;175.02;28.05;;;;;;;;;;5052047;28;20096;-80
2021/12/16 03:58:20;;;;;;;186.90;26.92;;;;;;;;;;5042541;28;20105;-80
2021/12/16 04:00:49;;;;;;;205.23;27.35;;;;;;;;;;5048059;28;20111;-81
2021/12/16 04:03:15;;;;;;;123.63;23.33;;;;;;;;;;5050917;28;20056;-80
2021/12/16 04:05:43;;;;;;;170.15;25.80;;;;;;;;;;5051031;28;20064;-80
2021/12/16 04:08:10;;;;;;;203.98;26.67;;;;;;;;;;5052950;28;20061;-82
2021/12/16 04:10:42;;;;;;;145.15;25.83;;;;;;;;;;5053269;28;20139;-79
2021/12/16 04:13:12;;;;;;;159.43;25.38;;;;;;;;;;5067195;28;20076;-79
2021/12/16 04:15:39;;;;;;;140.73;24.08;;;;;;;;;;5051491;28;20053;-80
2021/12/16 04:18:05;;;;;;;123.60;24.05;;;;;;;;;;5065179;28;20054;-78
2021/12/16 04:20:32;;;;;;;151.57;24.85;;;;;;;;;;5051128;28;20484;-80
2021/12/16 04:23:00;;;;;;;172.38;26.52;;;;;;;;;;5042442;28;20143;-79
2021/12/16 04:25:30;;;;;;;138.20;24.20;;;;;;;;;;5050872;28;20702;-79
2021/12/16 04:27:58;;;;;;;151.37;25.90;;;;;;;;;;5070012;28;20080;-80
2021/12/16 04:30:26;;;;;;;96.28;21.77;;;;;;;;;;5054146;28;20799;-77
2021/12/16 04:32:52;;;;;;;192.00;27.67;;;;;;;;;;5053250;28;20045;-80
2021/12/16 04:35:19;;;;;;;96.00;22.23;;;;;;;;;;5071788;28;20151;-83
2021/12/16 04:37:45;;;;;;;125.00;22.17;;;;;;;;;;5052908;28;20107;-78
2021/12/16 04:40:13;;;;;;;90.25;21.38;;;;;;;;;;5047084;28;20081;-79
2021/12/16 04:42:41;;;;;;;81.18;22.05;;;;;;;;;;5050618;28;20128;-77
2021/12/16 04:45:09;;;;;;;100.50;21.48;;;;;;;;;;5054668;28;20096;-78
2021/12/16 04:47:37;;;;;;;139.68;23.75;;;;;;;;;;5051180;28;20053;-79
2021/12/16 04:50:04;;;;;;;93.15;19.33;;;;;;;;;;5075205;28;20111;-80
2021/12/16 04:52:30;;;;;;;92.72;20.60;;;;;;;;;;5058747;28;20060;-77
2021/12/16 04:54:57;;;;;;;115.32;20.45;;;;;;;;;;5062920;28;20092;-79
2021/12/16 04:57:23;;;;;;;99.50;20.55;;;;;;;;;;5052763;28;20091;-80
2021/12/16 04:59:49;;;;;;;95.80;19.95;;;;;;;;;;5056484;28;20107;-81
2021/12/16 05:02:17;;;;;;;91.95;19.33;;;;;;;;;;5071840;28;20573;-80
2021/12/16 05:04:45;;;;;;;79.55;18.67;;;;;;;;;;5072474;28;20531;-79
2021/12/16 05:07:12;;;;;;;91.63;19.02;;;;;;;;;;5053880;28;20546;-79
2021/12/16 05:12:17;;;;;;;82.90;18.90;;;;;;;;;;5071070;28;20052;-79
2021/12/16 05:14:44;;;;;;;97.68;19.40;;;;;;;;;;5053487;28;20053;-79
2021/12/16 05:17:23;;;;;;;103.22;19.00;;;;;;;;;;5053326;28;20060;-79
2021/12/16 05:19:51;;;;;;;87.13;18.23;;;;;;;;;;5053499;28;20061;-79
2021/12/16 05:24:16;;;;;;;85.75;18.15;;;;;;;;;;5071607;28;20095;-78
2021/12/16 05:25:16;;;;;;;71.07;17.83;;;;;;;;;;5070487;28;20360;-80
2021/12/16 05:27:42;;;;;;;81.78;17.88;;;;;;;;;;5051467;28;20161;-79
2021/12/16 05:30:09;;;;;;;65.75;16.65;;;;;;;;;;5053279;28;20052;-80
2021/12/16 05:32:35;;;;;;;72.53;17.63;;;;;;;;;;5053299;28;20056;-79
2021/12/16 05:35:02;;;;;;;85.90;17.17;;;;;;;;;;5052623;28;20164;-80
2021/12/16 05:37:28;;;;;;;84.28;17.38;;;;;;;;;;5052430;28;20096;-78
2021/12/16 05:39:55;;;;;;;59.30;16.00;;;;;;;;;;5052843;28;20485;-81
2021/12/16 05:42:21;;;;;;;67.60;15.98;;;;;;;;;;5063566;28;20081;-80
2021/12/16 05:44:48;;;;;;;79.82;17.67;;;;;;;;;;5071315;28;20077;-79
2021/12/16 05:47:14;;;;;;;79.43;17.70;;;;;;;;;;5071227;28;20115;-80
2021/12/16 05:49:40;;;;;;;64.80;16.48;;;;;;;;;;5067795;28;20053;-80
2021/12/16 05:52:07;;;;;;;69.32;16.30;;;;;;;;;;5041817;28;20062;-82
2021/12/16 05:54:33;;;;;;;66.75;15.93;;;;;;;;;;5047326;28;20058;-78
2021/12/16 05:57:00;;;;;;;53.17;14.68;;;;;;;;;;5058698;28;20049;-78
2021/12/16 05:59:26;;;;;;;58.08;15.55;;;;;;;;;;5055189;28;20057;-81
2021/12/16 06:01:52;;;;;;;84.47;15.60;;;;;;;;;;5070068;28;20081;-81
2021/12/16 06:04:20;;;;;;;58.20;15.10;;;;;;;;;;5061846;28;20100;-80
2021/12/16 06:06:47;;;;;;;53.05;14.73;;;;;;;;;;5050571;28;20063;-79
2021/12/16 06:09:16;;;;;;;74.68;15.82;;;;;;;;;;5052813;28;20045;-78
2021/12/16 06:11:44;;;;;;;86.05;16.63;;;;;;;;;;5049816;28;20111;-80
2021/12/16 06:14:18;;;;;;;109.13;17.10;;;;;;;;;;5070395;28;20045;-78
2021/12/16 06:27:52;;;;;;;121.07;16.92;;;;;;;;;;5066501;28;20120;-78
2021/12/16 06:30:21;;;;;;;127.97;17.88;;;;;;;;;;5052167;28;20088;-80
2021/12/16 06:32:48;;;;;;;101.57;17.17;;;;;;;;;;5056726;28;20057;-79
2021/12/16 06:35:15;;;;;;;46.92;13.75;;;;;;;;;;5052271;28;20052;-79
2021/12/16 06:37:41;;;;;;;129.02;16.40;;;;;;;;;;5070286;28;20049;-78
2021/12/16 06:40:08;;;;;;;138.27;18.05;;;;;;;;;;5046924;28;20499;-79
2021/12/16 06:42:37;;;;;;;90.38;16.88;;;;;;;;;;5069874;28;20075;-80
2021/12/16 06:45:09;;;;;;;87.28;15.40;;;;;;;;;;5053292;28;20053;-78
2021/12/16 06:48:22;;;;;;;193.60;21.35;;;;;;;;;;5068978;28;20959;-78
2021/12/16 06:50:48;;;;;;;135.90;18.40;;;;;;;;;;5059627;28;20087;-80
2021/12/16 06:53:26;;;;;;;159.23;18.55;;;;;;;;;;5046977;28;20088;-80
2021/12/16 06:56:10;;;;;;;130.85;17.10;;;;;;;;;;5053969;28;20128;-81
2021/12/16 06:58:44;;;;;;;128.30;16.75;;;;;;;;;;5069359;28;20084;-79
2021/12/16 07:01:17;;;;;;;58.55;13.57;;;;;;;;;;5060093;28;20139;-77
2021/12/16 07:03:47;;;;;;;166.07;19.08;;;;;;;;;;5064863;28;20147;-79
2021/12/16 07:06:15;;;;;;;121.45;15.65;;;;;;;;;;5072733;28;20053;-79
2021/12/16 07:08:42;;;;;;;82.57;14.35;;;;;;;;;;5050993;28;20144;-79
2021/12/16 07:11:08;;;;;;;125.75;15.40;;;;;;;;;;5046966;28;20085;-81
2021/12/16 07:13:40;;;;;;;91.78;14.35;;;;;;;;;;5067239;28;20044;-81
2021/12/16 07:16:11;;;;;;;115.43;14.05;;;;;;;;;;5067654;28;20452;-81
2021/12/16 07:18:38;;;;;;;110.50;13.38;;;;;;;;;;5062610;28;20061;-80
2021/12/16 07:21:05;;;;;;;112.43;13.82;;;;;;;;;;5049872;28;20147;-80
2021/12/16 07:23:32;;;;;;;183.82;16.27;;;;;;;;;;5055545;28;20053;-80
2021/12/16 07:25:58;;;;;;;175.77;18.50;;;;;;;;;;5050473;28;20061;-79
2021/12/16 07:28:25;;;;;;;99.90;13.90;;;;;;;;;;5050757;28;20138;-80
2021/12/16 07:30:52;;;;;;;184.57;18.05;;;;;;;;;;5050007;28;20080;-80
2021/12/16 07:33:18;;;;;;;80.60;14.23;;;;;;;;;;5047763;28;20362;-80
2021/12/16 07:35:46;;;;;;;66.70;13.73;;;;;;;;;;5047793;28;20712;-79
2021/12/16 07:38:12;;;;;;;103.70;15.15;;;;;;;;;;5067968;28;20783;-80
2021/12/16 07:40:40;;;;;;;90.95;14.63;;;;;;;;;;5067387;28;20503;-79
2021/12/16 07:45:41;;;;;;;53.40;13.95;;;;;;;;;;5064734;28;20093;-79
2021/12/16 07:48:09;;;;;;;131.20;16.42;;;;;;;;;;5059552;28;20053;-80
2021/12/16 07:50:35;;;;;;;97.95;13.88;;;;;;;;;;5058289;28;20077;-80
2021/12/16 07:53:02;;;;;;;71.75;13.23;;;;;;;;;;5066797;28;20507;-80
2021/12/16 07:55:28;;;;;;;96.78;15.00;;;;;;;;;;5049126;28;20119;-80
2021/12/16 07:57:55;;;;;;;154.23;17.77;;;;;;;;;;5048867;28;21065;-80
2021/12/16 08:00:24;;;;;;;91.55;16.27;;;;;;;;;;5068854;28;20617;-80
2021/12/16 08:02:51;;;;;;;65.93;12.30;;;;;;;;;;5069427;28;20110;-78
2021/12/16 08:05:18;;;;;;;111.32;13.48;;;;;;;;;;5044658;28;20049;-81
2021/12/16 08:07:45;;;;;;;177.90;15.10;;;;;;;;;;5073677;28;20056;-81
2021/12/16 08:10:14;;;;;;;181.13;17.33;;;;;;;;;;5073386;28;20061;-81
2021/12/16 08:12:40;;;;;;;176.30;16.02;;;;;;;;;;5033359;28;20297;-80
2021/12/16 08:15:17;;;;;;;177.60;15.60;;;;;;;;;;5053620;28;20479;-78
2021/12/16 08:17:46;;;;;;;188.48;17.58;;;;;;;;;;5054322;28;20573;-81
2021/12/16 08:20:16;;;;;;;110.72;12.60;;;;;;;;;;5053585;28;20132;-80
2021/12/16 08:22:47;;;;;;;153.55;14.68;;;;;;;;;;5052898;28;20107;-79
2021/12/16 08:25:14;;;;;;;121.40;12.73;;;;;;;;;;5052432;28;20401;-80
2021/12/16 08:27:41;;;;;;;49.65;9.82;;;;;;;;;;5053005;28;20065;-81
2021/12/16 08:30:09;;;;;;;58.45;11.27;;;;;;;;;;5053980;28;20559;-79
2021/12/16 08:32:36;;;;;;;97.50;11.88;;;;;;;;;;5033966;28;20057;-81
2021/12/16 08:35:06;;;;;;;100.60;14.80;;;;;;;;;;5047969;28;20076;-80
2021/12/16 08:37:32;;;;;;;43.03;10.07;;;;;;;;;;5051158;28;20067;-80
2021/12/16 08:39:59;;;;;;;44.83;9.57;;;;;;;;;;5053679;28;20056;-81
2021/12/16 08:42:25;;;;;;;73.70;11.95;;;;;;;;;;5057494;28;20052;-79
2021/12/16 08:44:52;;;;;;;79.85;11.98;;;;;;;;;;5093270;28;20107;-80
2021/12/16 08:47:19;;;;;;;115.85;13.05;;;;;;;;;;5073439;28;20185;-81
2021/12/16 08:49:46;;;;;;;152.52;13.15;;;;;;;;;;5054251;28;20108;-79
2021/12/16 08:52:16;;;;;;;97.45;11.27;;;;;;;;;;5054417;28;20131;-80
2021/12/16 08:54:43;;;;;;;84.55;11.88;;;;;;;;;;5072047;28;20061;-80
2021/12/16 08:57:10;;;;;;;58.08;12.40;;;;;;;;;;5053231;28;20052;-80
2021/12/16 08:59:37;;;;;;;50.35;9.75;;;;;;;;;;5071681;28;20874;-80
2021/12/16 09:02:04;;;;;;;67.35;10.40;;;;;;;;;;5071947;28;20148;-79
2021/12/16 09:04:35;;;;;;;38.83;9.65;;;;;;;;;;5064600;28;20107;-80
2021/12/16 09:07:03;;;;;;;34.72;10.00;;;;;;;;;;5073059;28;20072;-79
2021/12/16 09:09:33;;;;;;;33.70;9.65;;;;;;;;;;5072890;28;20100;-81
2021/12/16 09:14:35;;;;;;;20.27;9.38;;;;;;;;;;5072784;28;20506;-81
2021/12/16 09:17:03;;;;;;;17.77;9.13;;;;;;;;;;5054227;28;20049;-81
2021/12/16 09:19:30;;;;;;;20.00;9.50;;;;;;;;;;5072092;28;20044;-81
2021/12/16 09:21:56;;;;;;;20.33;9.38;;;;;;;;;;5053833;28;20296;-80
2021/12/16 09:24:22;;;;;;;25.67;8.75;;;;;;;;;;5054749;28;20565;-79
2021/12/16 09:26:49;;;;;;;19.33;9.57;;;;;;;;;;5054682;28;20084;-80
2021/12/16 09:29:21;;;;;;;21.33;9.70;;;;;;;;;;5054704;28;20080;-81
2021/12/16 09:31:49;;;;;;;20.27;9.45;;;;;;;;;;5038396;28;20507;-81
2021/12/16 09:34:16;;;;;;;16.35;8.68;;;;;;;;;;5054435;28;20057;-80
2021/12/16 09:36:45;;;;;;;17.38;9.05;;;;;;;;;;5054582;28;20496;-80
2021/12/16 09:39:13;;;;;;;20.00;9.50;;;;;;;;;;5053892;28;20049;-80
2021/12/16 09:41:41;;;;;;;19.13;10.23;;;;;;;;;;5052919;28;20492;-80
2021/12/16 09:44:08;;;;;;;19.45;9.98;;;;;;;;;;5054550;28;20103;-80
2021/12/16 09:46:35;;;;;;;20.13;9.88;;;;;;;;;;5053532;28;20135;-80
2021/12/16 09:49:02;;;;;;;20.88;9.35;;;;;;;;;;5053853;28;20099;-78
2021/12/16 09:51:30;;;;;;;18.67;9.65;;;;;;;;;;5071759;28;20037;-80
2021/12/16 09:53:59;;;;;;;16.33;9.30;;;;;;;;;;5071059;28;20057;-81
2021/12/16 09:56:26;;;;;;;23.85;10.40;;;;;;;;;;5053214;28;20057;-80
2021/12/16 09:58:53;;;;;;;21.90;10.35;;;;;;;;;;5053146;28;20049;-80
2021/12/16 10:01:20;;;;;;;22.77;10.05;;;;;;;;;;5052163;28;20056;-81
2021/12/16 10:03:50;;;;;;;22.10;11.20;;;;;;;;;;5071218;28;20080;-80
2021/12/16 10:06:18;;;;;;;20.65;9.77;;;;;;;;;;5068309;28;20738;-80
2021/12/16 10:08:44;;;;;;;26.27;11.50;;;;;;;;;;5053192;28;20895;-81
2021/12/16 10:11:11;;;;;;;20.13;11.45;;;;;;;;;;5053325;28;20096;-80
2021/12/16 10:14:02;;;;;;;18.95;10.50;;;;;;;;;;5070252;28;20112;-79
2021/12/16 10:19:16;;;;;;;19.15;10.40;;;;;;;;;;5051196;28;20066;-80
2021/12/16 10:21:44;;;;;;;19.33;10.05;;;;;;;;;;5049226;28;20045;-81
2021/12/16 10:24:27;;;;;;;16.27;8.95;;;;;;;;;;5064666;28;20883;-80
2021/12/16 10:27:04;;;;;;;19.70;9.75;;;;;;;;;;5056193;28;20111;-80
2021/12/16 10:29:35;;;;;;;21.70;10.38;;;;;;;;;;5073027;28;20134;-79
2021/12/16 10:32:04;;;;;;;29.23;12.98;;;;;;;;;;5053870;28;20052;-81
2021/12/16 10:34:30;;;;;;;28.27;13.35;;;;;;;;;;5070654;28;20105;-79
2021/12/16 10:36:59;;;;;;;33.25;14.05;;;;;;;;;;5053093;28;20057;-80
2021/12/16 10:39:28;;;;;;;25.75;13.20;;;;;;;;;;5070746;28;20053;-81
2021/12/16 10:41:56;;;;;;;27.58;13.45;;;;;;;;;;5070557;28;20331;-81
2021/12/16 10:44:24;;;;;;;30.88;13.38;;;;;;;;;;5052588;28;20053;-81
2021/12/16 10:46:50;;;;;;;25.15;13.60;;;;;;;;;;5050705;28;20083;-78
2021/12/16 10:49:25;;;;;;;31.00;14.02;;;;;;;;;;5052662;28;20084;-78
2021/12/16 10:51:54;;;;;;;35.50;15.27;;;;;;;;;;5051401;28;20057;-80
2021/12/16 10:54:22;;;;;;;29.73;12.90;;;;;;;;;;5052463;28;20131;-80
2021/12/16 10:56:48;;;;;;;29.17;14.35;;;;;;;;;;5070961;28;20060;-81
2021/12/16 10:59:21;;;;;;;32.58;14.23;;;;;;;;;;5052556;28;20119;-81
2021/12/16 11:01:50;;;;;;;34.72;14.32;;;;;;;;;;5052823;28;20053;-79
2021/12/16 11:04:28;;;;;;;33.80;14.63;;;;;;;;;;5069520;28;20111;-81
2021/12/16 11:07:00;;;;;;;31.63;14.73;;;;;;;;;;5069705;28;20049;-80
2021/12/16 11:09:32;;;;;;;33.78;14.65;;;;;;;;;;5052107;28;20056;-81
2021/12/16 11:12:05;;;;;;;31.73;14.65;;;;;;;;;;5047827;28;20493;-81
2021/12/16 11:14:31;;;;;;;29.45;14.15;;;;;;;;;;5066758;28;20104;-79
2021/12/16 11:16:59;;;;;;;31.05;14.57;;;;;;;;;;5051118;28;20088;-79
2021/12/16 11:19:46;;;;;;;30.85;13.95;;;;;;;;;;5069721;28;20052;-79
2021/12/16 11:22:14;;;;;;;34.00;14.15;;;;;;;;;;5051426;28;20092;-80
2021/12/16 11:24:41;;;;;;;31.30;14.77;;;;;;;;;;5070282;28;20080;-79
2021/12/16 11:27:21;;;;;;;35.58;15.18;;;;;;;;;;5048773;28;20076;-80
2021/12/16 11:29:49;;;;;;;30.75;13.80;;;;;;;;;;5070341;28;20064;-80
2021/12/16 11:32:35;;;;;;;33.15;13.85;;;;;;;;;;5050182;28;20657;-78
2021/12/16 11:35:21;;;;;;;32.33;13.90;;;;;;;;;;5065727;28;20056;-79
2021/12/16 11:37:48;;;;;;;31.52;13.65;;;;;;;;;;5074052;28;20112;-78
2021/12/16 11:40:15;;;;;;;28.30;14.13;;;;;;;;;;5052204;28;20057;-79
2021/12/16 11:42:42;;;;;;;28.15;13.23;;;;;;;;;;5072210;28;20076;-79
2021/12/16 11:45:09;;;;;;;28.60;13.68;;;;;;;;;;5052557;28;20057;-79
2021/12/16 11:47:45;;;;;;;32.22;13.27;;;;;;;;;;5054296;28;20691;-79
2021/12/16 11:50:11;;;;;;;27.63;13.35;;;;;;;;;;5054100;28;20063;-79
2021/12/16 11:52:39;;;;;;;24.60;12.98;;;;;;;;;;5051629;28;20107;-80
2021/12/16 11:55:05;;;;;;;33.78;13.25;;;;;;;;;;5051265;28;20479;-80
2021/12/16 11:57:33;;;;;;;26.90;12.77;;;;;;;;;;5055132;28;20076;-79
2021/12/16 12:00:05;;;;;;;29.67;13.35;;;;;;;;;;5073352;28;20111;-79
2021/12/16 12:02:33;;;;;;;25.70;12.80;;;;;;;;;;5053008;28;20080;-79
2021/12/16 12:05:12;;;;;;;26.60;13.27;;;;;;;;;;5069215;28;20052;-79
2021/12/16 12:07:39;;;;;;;26.80;12.88;;;;;;;;;;5053950;28;20497;-79
2021/12/16 12:10:06;;;;;;;28.02;13.98;;;;;;;;;;5051952;28;20300;-78
2021/12/16 12:12:40;;;;;;;23.20;12.40;;;;;;;;;;5071584;28;20081;-80
2021/12/16 12:15:08;;;;;;;23.52;11.85;;;;;;;;;;5052259;28;20064;-78
2021/12/16 12:17:42;;;;;;;23.38;12.98;;;;;;;;;;5072379;28;20065;-79
2021/12/16 12:20:09;;;;;;;25.98;12.95;;;;;;;;;;5050900;28;20131;-79
2021/12/16 12:22:36;;;;;;;23.30;11.95;;;;;;;;;;5070629;28;20045;-79
2021/12/16 12:25:03;;;;;;;27.17;13.55;;;;;;;;;;5054622;28;20130;-79
2021/12/16 12:27:29;;;;;;;22.60;12.55;;;;;;;;;;5053913;28;20068;-80
2021/12/16 12:29:57;;;;;;;25.63;13.85;;;;;;;;;;5052783;28;20060;-79
2021/12/16 12:32:26;;;;;;;26.60;13.73;;;;;;;;;;5070778;28;20092;-79
2021/12/16 12:35:05;;;;;;;24.10;13.38;;;;;;;;;;5051340;28;20251;-78
2021/12/16 12:37:34;;;;;;;27.65;13.15;;;;;;;;;;5071425;28;20057;-79
2021/12/16 12:40:05;;;;;;;23.38;13.13;;;;;;;;;;5053186;28;20120;-79
2021/12/16 12:42:32;;;;;;;23.10;13.68;;;;;;;;;;5053795;28;20049;-80
2021/12/16 12:44:59;;;;;;;24.30;13.30;;;;;;;;;;5053924;28;20053;-79
2021/12/16 12:47:27;;;;;;;24.95;14.23;;;;;;;;;;5072474;28;20080;-79
2021/12/16 12:50:05;;;;;;;24.88;13.40;;;;;;;;;;5056070;28;20972;-79
2021/12/16 12:52:32;;;;;;;24.98;14.40;;;;;;;;;;5053834;28;20049;-81
2021/12/16 12:55:01;;;;;;;26.25;13.70;;;;;;;;;;5072334;28;20037;-80
2021/12/16 12:57:31;;;;;;;23.63;13.68;;;;;;;;;;5068319;28;20446;-79
2021/12/16 12:59:58;;;;;;;;;;;;;;;;;;5051112;28;20477;-79
2021/12/16 13:02:28;;;;;;;23.52;14.75;;;;;;;;;;5066649;28;46153;-80
2021/12/16 13:05:00;;;;;;;24.83;13.57;;;;;;;;;;5051718;28;20115;-80
2021/12/16 13:07:49;;;;;;;29.02;15.00;;;;;;;;;;5052887;28;20045;-79
2021/12/16 13:10:21;;;;;;;28.92;15.15;;;;;;;;;;5043711;28;20111;-78
2021/12/16 13:12:54;;;;;;;25.75;14.95;;;;;;;;;;5065748;28;20577;-79
2021/12/16 13:23:35;;;;;;;28.67;14.75;;;;;;;;;;5068527;28;20053;-79
2021/12/16 13:29:10;;;;;;;30.00;15.30;;;;;;;;;;5058957;28;20041;-78
2021/12/16 13:31:48;;;;;;;25.20;15.25;;;;;;;;;;5045692;28;20221;-78
2021/12/16 13:34:26;;;;;;;27.00;14.38;;;;;;;;;;5052735;28;20053;-78
2021/12/16 13:36:56;;;;;;;27.30;14.98;;;;;;;;;;5048951;28;20084;-80
2021/12/16 13:39:24;;;;;;;26.23;14.50;;;;;;;;;;5049839;28;20088;-79
2021/12/16 13:42:00;;;;;;;31.13;15.57;;;;;;;;;;5068579;28;20072;-79
2021/12/16 13:44:35;;;;;;;28.48;15.57;;;;;;;;;;5053683;28;20559;-78
2021/12/16 13:47:10;;;;;;;31.55;15.25;;;;;;;;;;5069628;28;20798;-79
2021/12/16 14:05:56;;;;;;;27.50;16.27;;;;;;;;;;5070777;28;20049;-79
2021/12/16 14:08:30;;;;;;;34.22;16.42;;;;;;;;;;5046813;28;20103;-80
2021/12/16 14:11:00;;;;;;;32.05;17.25;;;;;;;;;;5068052;28;20103;-79
2021/12/16 14:34:00;;;;;;;33.58;18.48;;;;;;;;;;5070499;28;21477;-79
2021/12/16 14:36:34;;;;;;;36.88;19.08;;;;;;;;;;5064212;28;20184;-80
2021/12/16 14:47:04;;;;;;;31.75;17.60;;;;;;;;;;5069225;28;20048;-79
2021/12/16 14:49:41;;;;;;;31.85;17.63;;;;;;;;;;5052499;28;20638;-78
2021/12/16 14:52:28;;;;;;;31.70;18.05;;;;;;;;;;5072936;28;20049;-77
2021/12/16 14:54:56;;;;;;;30.63;17.35;;;;;;;;;;5045254;28;20061;-79
2021/12/16 14:57:32;;;;;;;32.22;18.45;;;;;;;;;;5051260;28;20099;-79
2021/12/16 14:59:58;;;;;;;33.95;17.60;;;;;;;;;;5045114;28;20052;-78
2021/12/16 15:02:30;;;;;;;30.55;16.80;;;;;;;;;;5055175;28;20142;-79
2021/12/16 15:04:57;;;;;;;27.23;16.55;;;;;;;;;;5052920;28;20056;-80
2021/12/16 15:07:25;;;;;;;29.73;17.30;;;;;;;;;;5070241;28;20212;-80
2021/12/16 15:09:54;;;;;;;29.75;17.42;;;;;;;;;;5068814;28;20045;-79
2021/12/16 15:12:43;;;;;;;29.00;16.90;;;;;;;;;;5050904;28;20125;-79
2021/12/16 15:15:21;;;;;;;28.48;17.02;;;;;;;;;;5065417;28;20593;-77
2021/12/16 15:40:09;;;;;;;123.43;22.00;;;;;;;;;;5066159;28;20049;-77
2021/12/16 15:42:55;;;;;;;105.47;21.90;;;;;;;;;;5062861;28;20136;-78
2021/12/16 15:45:27;;;;;;;100.65;20.60;;;;;;;;;;5062733;28;20076;-80
2021/12/16 15:48:02;;;;;;;90.05;21.30;;;;;;;;;;5048971;28;20033;-80
2021/12/16 15:50:49;;;;;;;72.53;20.58;;;;;;;;;;5046377;28;20064;-80
2021/12/16 15:53:20;;;;;;;114.68;24.60;;;;;;;;;;5043230;28;20056;-82
2021/12/16 15:56:13;;;;;;;88.22;20.45;;;;;;;;;;5053734;28;20585;-81
2021/12/16 15:58:44;;;;;;;97.03;19.88;;;;;;;;;;5040502;28;20119;-82
2021/12/16 16:01:12;;;;;;;124.97;23.20;;;;;;;;;;5050350;28;20130;-81
2021/12/16 16:03:39;;;;;;;120.30;22.80;;;;;;;;;;5058524;28;20111;-82
2021/12/16 16:06:07;;;;;;;111.38;21.90;;;;;;;;;;5051184;28;20096;-79
2021/12/16 16:08:35;;;;;;;122.72;24.30;;;;;;;;;;5050764;28;20073;-81
2021/12/16 16:11:04;;;;;;;198.38;26.10;;;;;;;;;;5048869;28;20087;-80
2021/12/16 16:13:32;;;;;;;191.85;26.30;;;;;;;;;;5064295;28;20116;-81
2021/12/16 16:16:01;;;;;;;166.20;25.00;;;;;;;;;;5071821;28;20104;-80
2021/12/16 16:20:57;;;;;;;252.68;30.70;;;;;;;;;;5069668;28;20057;-81
2021/12/16 16:23:25;;;;;;;222.02;28.58;;;;;;;;;;5072338;28;20075;-81
2021/12/16 16:25:52;;;;;;;130.15;24.05;;;;;;;;;;5049852;28;20076;-80
2021/12/16 16:28:20;;;;;;;198.43;26.95;;;;;;;;;;5056823;28;20095;-81
2021/12/16 16:30:46;;;;;;;184.13;28.95;;;;;;;;;;5055269;28;20057;-80
2021/12/16 16:33:19;;;;;;;172.20;25.58;;;;;;;;;;5076216;28;20075;-81
2021/12/16 16:35:53;;;;;;;150.90;24.38;;;;;;;;;;5054974;28;20191;-80
2021/12/16 16:38:22;;;;;;;180.40;28.02;;;;;;;;;;5069877;28;20049;-81
2021/12/16 16:40:50;;;;;;;75.80;22.38;;;;;;;;;;5054930;28;20057;-80
2021/12/16 16:43:22;;;;;;;171.50;28.50;;;;;;;;;;5053850;28;20113;-81
2021/12/16 16:45:50;;;;;;;152.18;26.55;;;;;;;;;;5052608;28;20056;-80
2021/12/16 16:51:32;;;;;;;131.85;27.27;;;;;;;;;;5029964;28;20061;-82
2021/12/16 16:57:03;;;;;;;214.63;30.33;;;;;;;;;;5059733;28;20496;-81
2021/12/16 16:59:36;;;;;;;93.90;22.52;;;;;;;;;;5053474;28;20049;-80
2021/12/16 17:02:18;;;;;;;126.45;23.13;;;;;;;;;;5069343;28;20064;-79
2021/12/16 17:04:46;;;;;;;119.55;24.52;;;;;;;;;;5074486;28;20141;-81
2021/12/16 17:07:13;;;;;;;195.18;28.10;;;;;;;;;;5052068;28;20116;-81
2021/12/16 17:09:43;;;;;;;77.45;22.65;;;;;;;;;;5053314;28;20478;-81
2021/12/16 17:12:11;;;;;;;57.28;20.80;;;;;;;;;;5070040;28;20053;-82
2021/12/16 17:14:42;;;;;;;60.05;20.50;;;;;;;;;;5056246;28;20596;-82
2021/12/16 17:17:13;;;;;;;128.70;22.55;;;;;;;;;;5052553;28;20053;-82
2021/12/16 17:19:45;;;;;;;161.35;35.45;;;;;;;;;;5052227;28;20099;-83
2021/12/16 17:22:13;;;;;;;94.82;27.48;;;;;;;;;;5049291;28;20053;-81
2021/12/16 17:24:45;;;;;;;176.73;36.47;;;;;;;;;;5071180;28;20049;-81
2021/12/16 17:27:12;;;;;;;150.85;31.30;;;;;;;;;;5046640;28;20508;-83
2021/12/16 17:29:46;;;;;;;127.63;28.45;;;;;;;;;;5066597;28;20045;-80
2021/12/16 17:32:14;;;;;;;176.10;29.23;;;;;;;;;;5048249;28;20057;-81
2021/12/16 17:34:47;;;;;;;82.60;24.70;;;;;;;;;;5035803;28;20524;-80
2021/12/16 17:37:21;;;;;;;90.97;25.83;;;;;;;;;;5046072;28;20040;-81
2021/12/16 17:39:51;;;;;;;69.85;23.80;;;;;;;;;;5046349;28;20062;-81
2021/12/16 17:42:32;;;;;;;140.95;25.48;;;;;;;;;;5052893;28;20057;-79
2021/12/16 17:45:00;;;;;;;113.88;22.55;;;;;;;;;;5061606;28;20472;-81
2021/12/16 17:47:28;;;;;;;99.47;21.35;;;;;;;;;;5049142;28;20064;-80
2021/12/16 17:49:56;;;;;;;89.82;20.38;;;;;;;;;;5068938;28;20041;-81
2021/12/16 17:52:31;;;;;;;109.57;20.30;;;;;;;;;;5047023;28;20127;-81
2021/12/16 17:55:10;;;;;;;103.18;20.15;;;;;;;;;;5064362;28;20057;-79
2021/12/16 17:57:39;;;;;;;139.35;22.25;;;;;;;;;;5052449;28;20171;-81
2021/12/16 18:00:26;;;;;;;175.75;24.20;;;;;;;;;;5052616;28;20053;-79
2021/12/16 18:02:53;;;;;;;130.27;21.02;;;;;;;;;;5054693;28;20538;-80
2021/12/16 18:05:21;;;;;;;135.23;23.05;;;;;;;;;;5074133;28;20049;-81
2021/12/16 18:07:47;;;;;;;159.82;23.48;;;;;;;;;;5053373;28;20057;-80
2021/12/16 18:10:15;;;;;;;188.05;25.45;;;;;;;;;;5051970;28;20045;-79
2021/12/16 18:12:44;;;;;;;134.00;24.33;;;;;;;;;;5070674;28;20686;-81
2021/12/16 18:15:12;;;;;;;157.35;22.45;;;;;;;;;;5069316;28;20101;-79
2021/12/16 18:17:40;;;;;;;107.50;22.55;;;;;;;;;;5066990;28;20057;-79
2021/12/16 18:20:10;;;;;;;142.15;22.95;;;;;;;;;;5068865;28;20043;-83